La Loche, Canada
Current Conditions -  °F | °C
As of 1:00 PM on Monday 22 Dec 2014 (Local Time) from CYVT Reporting Station
Light Snow Light Snow  
Wind Chill: 21°   Ceiling: 2500
Heat Index: 21°   Visibility: 6mi
Dew Point: 19°   Wind: 0mph
Humidity: 93%   Direction: NA
Pressure: 29.82"   Gusts: NA
Location:  56.48°N, 109.43°W
Report Text: CYVT 221900Z 00000KT 6SM -SN BR SCT005 OVC025 M06/M07 A2982 RMK ST4SC4 SLP127
Loading
Personal Weather Stations






























Interactive Weather Map New forecast layout! Learn more

10-Day Weather Forecast

Advertisements
Track Severe Weather on mobile